createdAt,value
2019-04-22T00:02:22.682Z,12.20
2019-04-22T00:05:04.640Z,12.10
2019-04-22T00:07:48.930Z,12.10
2019-04-22T00:10:27.562Z,12.00
2019-04-22T00:13:01.431Z,11.90
2019-04-22T00:15:29.193Z,11.90
2019-04-22T00:18:10.094Z,11.90
2019-04-22T00:20:43.627Z,11.90
2019-04-22T00:23:16.905Z,11.90
2019-04-22T00:25:48.323Z,11.90
2019-04-22T00:28:39.290Z,11.90
2019-04-22T00:30:53.805Z,11.80
2019-04-22T00:33:26.485Z,11.70
2019-04-22T00:36:04.336Z,11.70
2019-04-22T00:41:05.519Z,11.70
2019-04-22T00:43:39.532Z,11.60
2019-04-22T00:46:11.309Z,11.60
2019-04-22T00:49:05.830Z,11.60
2019-04-22T00:51:26.201Z,11.50
2019-04-22T00:53:46.825Z,11.50
2019-04-22T00:56:22.123Z,11.40
2019-04-22T00:58:56.564Z,11.30
2019-04-22T01:01:31.854Z,11.30
2019-04-22T01:04:14.317Z,11.20
2019-04-22T01:06:41.614Z,11.20
2019-04-22T01:09:10.819Z,11.20
2019-04-22T01:11:49.809Z,11.10
2019-04-22T01:14:12.538Z,11.10
2019-04-22T01:16:57.841Z,11.00
2019-04-22T01:19:23.580Z,11.00
2019-04-22T01:21:58.579Z,10.90
2019-04-22T01:24:27.817Z,10.90
2019-04-22T01:26:59.263Z,10.90
2019-04-22T01:29:28.044Z,10.80
2019-04-22T01:31:50.615Z,10.80
2019-04-22T01:34:36.454Z,10.80
2019-04-22T01:37:13.785Z,10.70
2019-04-22T01:39:57.486Z,10.60
2019-04-22T01:42:30.494Z,10.50
2019-04-22T01:44:56.740Z,10.50
2019-04-22T01:50:06.120Z,10.50
2019-04-22T01:52:36.778Z,10.50
2019-04-22T01:55:17.489Z,10.60
2019-04-22T01:57:45.642Z,10.50
2019-04-22T02:00:11.478Z,10.50
2019-04-22T02:03:12.046Z,10.40
2019-04-22T02:05:24.522Z,10.50
2019-04-22T02:07:59.516Z,10.50
2019-04-22T02:10:40.693Z,10.50
2019-04-22T02:13:11.539Z,10.50
2019-04-22T02:15:39.925Z,10.50
2019-04-22T02:18:19.760Z,10.50
2019-04-22T02:20:43.886Z,10.40
2019-04-22T02:36:29.467Z,10.00
2019-04-22T02:46:43.048Z,9.80
2019-04-22T02:51:32.633Z,9.70
2019-04-22T02:54:31.648Z,9.70
2019-04-22T02:59:25.938Z,9.80
2019-04-22T03:02:03.329Z,9.90
2019-04-22T03:04:37.494Z,10.00
2019-04-22T03:06:45.965Z,10.00
2019-04-22T03:09:35.676Z,10.00
2019-04-22T03:12:14.236Z,10.00
2019-04-22T03:14:51.711Z,10.00
2019-04-22T03:17:18.382Z,10.00
2019-04-22T03:19:53.001Z,10.10
2019-04-22T03:22:19.288Z,10.10
2019-04-22T03:25:05.513Z,10.10
2019-04-22T03:27:35.236Z,10.10
2019-04-22T03:33:09.184Z,10.00
2019-04-22T03:37:56.049Z,9.90
2019-04-22T03:40:30.948Z,10.00
2019-04-22T03:45:33.496Z,10.10
2019-04-22T03:53:09.400Z,10.60
2019-04-22T03:55:46.807Z,10.70
2019-04-22T04:00:47.907Z,11.10
2019-04-22T04:03:19.136Z,11.30
2019-04-22T04:08:26.331Z,11.60
2019-04-22T04:11:07.049Z,11.70
2019-04-22T04:16:06.725Z,11.70
2019-04-22T04:21:26.829Z,11.50
2019-04-22T04:26:31.148Z,11.00
2019-04-22T04:29:32.593Z,10.70
2019-04-22T04:31:53.338Z,10.60
2019-04-22T04:34:28.517Z,10.60
2019-04-22T04:36:58.091Z,10.40
2019-04-22T04:39:28.166Z,10.30
2019-04-22T04:42:05.034Z,10.10
2019-04-22T04:44:59.209Z,10.10
2019-04-22T04:47:11.754Z,10.00
2019-04-22T04:49:43.551Z,10.10
2019-04-22T04:52:21.775Z,10.10
2019-04-22T04:55:18.119Z,10.10
2019-04-22T04:57:14.601Z,10.20
2019-04-22T05:00:11.173Z,10.30
2019-04-22T05:02:30.482Z,10.40
2019-04-22T05:05:04.270Z,10.50
2019-04-22T05:07:34.285Z,10.60
2019-04-22T05:09:59.902Z,10.60
2019-04-22T05:12:45.733Z,10.70
2019-04-22T05:15:08.996Z,10.80
2019-04-22T05:20:12.955Z,11.20
2019-04-22T05:22:41.300Z,11.30
2019-04-22T05:25:15.191Z,11.50
2019-04-22T05:27:45.372Z,11.70
2019-04-22T05:32:52.260Z,12.00
2019-04-22T05:37:56.322Z,12.20
2019-04-22T05:40:30.678Z,12.40
2019-04-22T05:43:00.373Z,12.70
2019-04-22T05:45:33.073Z,12.90
2019-04-22T05:48:05.774Z,13.10
2019-04-22T05:50:42.530Z,13.20
2019-04-22T05:53:07.206Z,13.60
2019-04-22T05:55:52.435Z,14.00
2019-04-22T05:58:29.332Z,14.20
2019-04-22T06:01:29.013Z,14.50
2019-04-22T06:03:46.230Z,14.90
2019-04-22T06:06:15.068Z,15.20
2019-04-22T06:08:51.272Z,15.40
2019-04-22T06:11:25.777Z,15.70
2019-04-22T06:13:56.120Z,15.90
2019-04-22T06:16:43.103Z,16.60
2019-04-22T06:21:42.822Z,18.50
2019-04-22T06:24:20.398Z,19.10
2019-04-22T06:29:20.996Z,18.90
2019-04-22T06:32:23.092Z,18.50
2019-04-22T06:34:28.920Z,18.40
2019-04-22T06:37:07.347Z,18.40
2019-04-22T06:39:34.378Z,19.10
2019-04-22T06:42:07.959Z,20.30
2019-04-22T06:44:45.691Z,21.80
2019-04-22T06:47:14.794Z,23.40
2019-04-22T06:49:52.663Z,24.50
2019-04-22T06:52:17.740Z,24.80
2019-04-22T06:54:54.507Z,25.20
2019-04-22T06:57:26.868Z,26.00
2019-04-22T06:59:59.046Z,27.10
2019-04-22T07:02:46.448Z,27.50
2019-04-22T07:05:08.237Z,28.20
2019-04-22T07:07:38.661Z,28.30
2019-04-22T07:10:23.658Z,27.80
2019-04-22T07:12:46.602Z,27.90
2019-04-22T07:15:40.205Z,28.00
2019-04-22T07:17:55.055Z,28.10
2019-04-22T07:20:23.981Z,28.20
2019-04-22T07:23:01.921Z,29.20
2019-04-22T07:25:29.187Z,29.80
2019-04-22T07:28:05.074Z,29.70
2019-04-22T07:30:39.411Z,28.40
2019-04-22T07:38:25.702Z,29.90
2019-04-22T07:41:00.804Z,29.90
2019-04-22T07:43:32.498Z,29.40
2019-04-22T07:45:56.491Z,29.20
2019-04-22T07:48:43.234Z,28.50
2019-04-22T07:53:35.748Z,28.70
2019-04-22T07:56:16.235Z,29.20
2019-04-22T07:58:42.080Z,29.80
2019-04-22T08:01:20.378Z,30.30
2019-04-22T08:04:00.154Z,31.00
2019-04-22T08:06:23.629Z,31.00
2019-04-22T08:09:00.381Z,31.80
2019-04-22T08:11:43.480Z,31.80
2019-04-22T08:14:07.646Z,32.70
2019-04-22T08:16:38.264Z,32.10
2019-04-22T08:19:15.793Z,32.50
2019-04-22T08:21:46.235Z,32.40
2019-04-22T08:24:14.594Z,32.00
2019-04-22T08:26:56.074Z,32.60
2019-04-22T08:29:35.043Z,32.70
2019-04-22T08:34:29.583Z,32.00
2019-04-22T08:39:35.801Z,32.70
2019-04-22T08:42:20.423Z,32.10
2019-04-22T08:45:04.802Z,32.10
2019-04-22T08:49:56.912Z,32.00
2019-04-22T08:52:27.531Z,32.20
2019-04-22T08:54:57.427Z,32.10
2019-04-22T08:57:57.318Z,31.90
2019-04-22T09:00:02.368Z,32.40
2019-04-22T09:02:40.813Z,32.90
2019-04-22T09:05:20.638Z,32.40
2019-04-22T09:07:46.998Z,32.20
2019-04-22T09:10:20.399Z,32.50
2019-04-22T09:12:57.647Z,32.90
2019-04-22T09:15:26.622Z,32.60
2019-04-22T09:17:55.931Z,32.40
2019-04-22T09:20:28.644Z,32.80
2019-04-22T09:23:03.736Z,32.50
2019-04-22T09:25:37.494Z,32.30
2019-04-22T09:28:07.224Z,32.30
2019-04-22T09:30:40.418Z,32.20
2019-04-22T09:33:15.989Z,32.50
2019-04-22T09:35:51.674Z,31.50
2019-04-22T09:40:52.527Z,32.10
2019-04-22T09:43:35.128Z,31.90
2019-04-22T09:45:58.123Z,31.40
2019-04-22T09:48:41.747Z,30.40
2019-04-22T09:50:58.867Z,30.50
2019-04-22T09:53:47.122Z,30.50
2019-04-22T09:56:11.317Z,30.30
2019-04-22T09:58:44.850Z,29.70
2019-04-22T10:01:26.130Z,29.30
2019-04-22T10:03:55.961Z,29.80
2019-04-22T10:09:22.693Z,28.70
2019-04-22T10:11:37.746Z,29.20
2019-04-22T10:14:05.734Z,29.20
2019-04-22T10:19:12.361Z,29.20
2019-04-22T10:24:15.257Z,29.60
2019-04-22T10:26:53.953Z,30.90
2019-04-22T10:29:24.681Z,30.80
2019-04-22T10:31:57.145Z,30.40
2019-04-22T10:34:16.897Z,31.00
2019-04-22T10:36:37.857Z,30.80
2019-04-22T10:39:10.690Z,30.50
2019-04-22T10:41:42.469Z,30.90
2019-04-22T10:44:15.132Z,30.60
2019-04-22T10:46:48.323Z,31.40
2019-04-22T10:49:20.397Z,30.60
2019-04-22T10:51:52.854Z,29.30
2019-04-22T10:54:25.336Z,28.40
2019-04-22T10:56:56.984Z,28.00
2019-04-22T10:59:28.903Z,28.10
2019-04-22T11:02:19.724Z,28.00
2019-04-22T11:04:52.269Z,28.30
2019-04-22T11:07:36.322Z,27.90
2019-04-22T11:10:17.553Z,28.30
2019-04-22T11:12:35.282Z,28.70
2019-04-22T11:15:07.708Z,28.30
2019-04-22T11:17:39.684Z,27.20
2019-04-22T11:20:11.418Z,26.70
2019-04-22T11:22:44.549Z,26.40
2019-04-22T11:25:17.756Z,26.20
2019-04-22T11:27:49.590Z,26.20
2019-04-22T11:30:24.682Z,26.20
2019-04-22T11:32:56.229Z,26.10
2019-04-22T11:35:29.869Z,26.30
2019-04-22T11:38:01.420Z,26.40
2019-04-22T11:40:38.414Z,26.80
2019-04-22T11:43:06.243Z,26.70
2019-04-22T11:45:37.633Z,26.30
2019-04-22T11:48:09.272Z,26.00
2019-04-22T11:50:42.087Z,26.00
2019-04-22T11:53:13.609Z,25.70
2019-04-22T11:55:48.944Z,25.50
2019-04-22T11:58:18.944Z,25.80
2019-04-22T12:00:51.952Z,26.00
2019-04-22T12:03:23.439Z,26.10
2019-04-22T12:05:55.590Z,26.20
2019-04-22T12:08:27.215Z,26.30
2019-04-22T12:11:01.911Z,26.00
2019-04-22T12:13:31.717Z,26.00
2019-04-22T12:16:13.508Z,25.90
2019-04-22T12:18:49.290Z,26.00
2019-04-22T12:21:21.437Z,26.00
2019-04-22T12:23:52.928Z,26.00
2019-04-22T12:26:25.466Z,26.10
2019-04-22T12:28:57.539Z,26.20
2019-04-22T12:31:29.308Z,26.30
2019-04-22T12:34:01.462Z,26.30
2019-04-22T12:36:32.889Z,26.40
2019-04-22T12:39:07.531Z,26.10
2019-04-22T12:41:40.143Z,26.30
2019-04-22T12:44:11.816Z,26.20
2019-04-22T12:46:43.937Z,26.10
2019-04-22T12:49:16.300Z,26.00
2019-04-22T12:51:49.276Z,25.80
2019-04-22T12:54:21.583Z,25.80
2019-04-22T12:56:53.344Z,25.60
2019-04-22T12:59:25.527Z,25.70
2019-04-22T13:01:58.497Z,25.80
2019-04-22T13:04:30.205Z,25.80
2019-04-22T13:07:03.823Z,25.50
2019-04-22T13:09:36.961Z,25.60
2019-04-22T13:12:08.910Z,25.90
2019-04-22T13:14:41.033Z,25.90
2019-04-22T13:17:14.018Z,25.70
2019-04-22T13:19:45.336Z,25.60
2019-04-22T13:22:16.961Z,25.40
2019-04-22T13:24:49.910Z,25.40
2019-04-22T13:27:21.369Z,25.50
2019-04-22T13:29:53.026Z,25.60
2019-04-22T13:32:25.025Z,25.70
2019-04-22T13:34:59.932Z,25.70
2019-04-22T13:37:30.823Z,25.80
2019-04-22T13:40:03.517Z,25.90
2019-04-22T13:42:35.502Z,25.90
2019-04-22T13:45:09.644Z,25.70
2019-04-22T13:47:56.217Z,25.80
2019-04-22T13:53:33.798Z,25.50
2019-04-22T13:55:53.221Z,25.30
2019-04-22T13:58:08.116Z,25.50
2019-04-22T14:00:31.255Z,25.30
2019-04-22T14:03:24.751Z,25.20
2019-04-22T14:05:56.697Z,25.20
2019-04-22T14:08:29.201Z,25.30
2019-04-22T14:11:13.200Z,25.40
2019-04-22T14:13:34.228Z,25.60
2019-04-22T14:16:06.803Z,25.80
2019-04-22T14:18:39.056Z,25.80
2019-04-22T14:21:10.826Z,25.90
2019-04-22T14:23:42.490Z,25.80
2019-04-22T14:26:15.318Z,25.60
2019-04-22T14:28:48.052Z,25.70
2019-04-22T14:31:20.332Z,25.60
2019-04-22T14:33:55.982Z,25.60
2019-04-22T14:36:25.398Z,25.70
2019-04-22T14:38:57.811Z,25.80
2019-04-22T14:41:42.563Z,25.80
2019-04-22T14:45:05.403Z,25.70
2019-04-22T14:47:03.552Z,25.80
2019-04-22T14:49:28.570Z,25.80
2019-04-22T14:52:10.709Z,25.80
2019-04-22T14:54:30.931Z,25.70
2019-04-22T14:56:48.548Z,25.80
2019-04-22T14:59:20.860Z,25.80
2019-04-22T15:01:53.938Z,25.70
2019-04-22T15:04:26.813Z,25.60
2019-04-22T15:06:59.088Z,25.40
2019-04-22T15:09:30.372Z,25.30
2019-04-22T15:12:11.134Z,25.50
2019-04-22T15:14:35.546Z,25.70
2019-04-22T15:17:24.974Z,25.70
2019-04-22T15:20:03.808Z,25.70
2019-04-22T15:22:36.743Z,25.50
2019-04-22T15:25:08.714Z,25.40
2019-04-22T15:27:41.491Z,25.50
2019-04-22T15:30:13.460Z,25.50
2019-04-22T15:32:45.551Z,25.20
2019-04-22T15:35:17.498Z,25.10
2019-04-22T15:37:49.000Z,24.90
2019-04-22T15:40:20.676Z,24.90
2019-04-22T15:42:52.958Z,24.90
2019-04-22T15:45:25.907Z,24.90
2019-04-22T15:47:57.906Z,24.90
2019-04-22T15:50:30.726Z,25.10
2019-04-22T15:53:04.451Z,25.20
2019-04-22T15:55:36.733Z,25.20
2019-04-22T15:58:08.173Z,25.00
2019-04-22T16:00:52.094Z,24.90
2019-04-22T16:03:12.730Z,25.00
2019-04-22T16:05:46.045Z,24.90
2019-04-22T16:08:17.288Z,24.80
2019-04-22T16:10:48.903Z,24.70
2019-04-22T16:13:24.673Z,24.70
2019-04-22T16:15:54.409Z,24.70
2019-04-22T16:18:26.496Z,24.60
2019-04-22T16:20:58.666Z,24.50
2019-04-22T16:23:46.976Z,24.40
2019-04-22T16:26:36.054Z,24.40
2019-04-22T16:29:09.491Z,24.40
2019-04-22T16:31:40.862Z,24.30
2019-04-22T16:34:13.287Z,24.20
2019-04-22T16:36:44.935Z,24.20
2019-04-22T16:39:16.540Z,24.20
2019-04-22T16:41:48.625Z,24.10
2019-04-22T16:44:20.768Z,24.00
2019-04-22T16:46:52.046Z,24.10
2019-04-22T16:49:23.708Z,24.00
2019-04-22T16:51:56.133Z,24.00
2019-04-22T16:54:27.863Z,23.90
2019-04-22T16:56:59.858Z,24.00
2019-04-22T16:59:32.759Z,23.90
2019-04-22T17:02:30.618Z,24.00
2019-04-22T17:05:27.378Z,23.90
2019-04-22T17:08:00.418Z,23.80
2019-04-22T17:10:31.829Z,23.80
2019-04-22T17:13:07.858Z,23.80
2019-04-22T17:15:37.564Z,23.80
2019-04-22T17:18:09.636Z,23.80
2019-04-22T17:20:42.471Z,23.60
2019-04-22T17:23:14.066Z,23.60
2019-04-22T17:25:45.368Z,23.40
2019-04-22T17:28:17.471Z,23.40
2019-04-22T17:30:49.756Z,23.30
2019-04-22T17:33:21.183Z,23.20
2019-04-22T17:35:52.821Z,23.10
2019-04-22T17:38:36.171Z,23.10
2019-04-22T17:41:11.421Z,23.00
2019-04-22T17:43:54.115Z,23.00
2019-04-22T17:46:24.775Z,22.90
2019-04-22T17:49:04.381Z,22.80
2019-04-22T17:51:59.543Z,22.70
2019-04-22T17:54:15.221Z,22.60
2019-04-22T17:56:49.841Z,22.60
2019-04-22T17:59:24.948Z,22.50
2019-04-22T18:01:51.558Z,22.40
2019-04-22T18:04:05.286Z,22.40
2019-04-22T18:07:02.134Z,22.30
2019-04-22T18:09:57.924Z,22.20
2019-04-22T18:12:13.532Z,22.10
2019-04-22T18:17:12.859Z,22.00
2019-04-22T18:19:41.312Z,21.80
2019-04-22T18:22:12.315Z,21.80
2019-04-22T18:24:49.025Z,21.70
2019-04-22T18:27:36.324Z,21.60
2019-04-22T18:29:52.018Z,21.50
2019-04-22T18:32:21.784Z,21.40
2019-04-22T18:34:53.154Z,21.40
2019-04-22T18:37:36.662Z,21.30
2019-04-22T18:40:08.515Z,21.20
2019-04-22T18:42:48.627Z,21.10
2019-04-22T18:45:29.574Z,21.00
2019-04-22T18:47:44.200Z,20.90
2019-04-22T18:50:31.016Z,20.90
2019-04-22T18:53:16.134Z,20.90
2019-04-22T18:55:55.496Z,20.70
2019-04-22T18:58:29.109Z,20.60
2019-04-22T19:00:45.972Z,20.60
2019-04-22T19:03:22.652Z,20.50
2019-04-22T19:06:24.813Z,20.40
2019-04-22T19:08:43.351Z,20.30
2019-04-22T19:11:16.720Z,20.30
2019-04-22T19:14:07.699Z,20.20
2019-04-22T19:16:30.916Z,20.20
2019-04-22T19:19:18.456Z,20.10
2019-04-22T19:21:26.409Z,20.10
2019-04-22T19:24:01.520Z,20.00
2019-04-22T19:26:50.506Z,19.90
2019-04-22T19:29:06.891Z,19.90
2019-04-22T19:31:43.686Z,19.80
2019-04-22T19:34:16.742Z,19.70
2019-04-22T19:36:51.252Z,19.70
2019-04-22T19:39:21.306Z,19.60
2019-04-22T19:42:00.706Z,19.50
2019-04-22T19:44:26.257Z,19.40
2019-04-22T19:47:20.835Z,19.40
2019-04-22T19:49:38.358Z,19.30
2019-04-22T19:52:10.878Z,19.20
2019-04-22T19:54:43.898Z,19.20
2019-04-22T19:57:11.760Z,19.10
2019-04-22T19:59:45.211Z,19.10
2019-04-22T20:02:42.482Z,19.00
2019-04-22T20:05:37.188Z,18.90
2019-04-22T20:08:05.912Z,18.80
2019-04-22T20:10:40.155Z,18.80
2019-04-22T20:13:18.834Z,18.70
2019-04-22T20:15:37.155Z,18.70
2019-04-22T20:18:29.677Z,18.60
2019-04-22T20:20:56.834Z,18.50
2019-04-22T20:23:21.720Z,18.40
2019-04-22T20:25:51.158Z,18.40
2019-04-22T20:28:33.057Z,18.30
2019-04-22T20:31:04.027Z,18.30
2019-04-22T20:33:48.168Z,18.30
2019-04-22T20:36:23.205Z,18.20
2019-04-22T20:38:40.003Z,18.20
2019-04-22T20:41:13.369Z,18.20
2019-04-22T20:43:54.559Z,18.10
2019-04-22T20:46:22.265Z,18.00
2019-04-22T20:48:56.909Z,17.90
2019-04-22T20:51:36.141Z,17.80
2019-04-22T20:54:02.222Z,17.80
2019-04-22T20:56:29.975Z,17.70
2019-04-22T20:59:09.944Z,17.70
2019-04-22T21:01:38.814Z,17.60
2019-04-22T21:03:58.875Z,17.50
2019-04-22T21:06:42.288Z,17.40
2019-04-22T21:09:23.892Z,17.40
2019-04-22T21:11:48.281Z,17.50
2019-04-22T21:14:19.938Z,17.40
2019-04-22T21:17:00.689Z,17.30
2019-04-22T21:19:41.685Z,17.30
2019-04-22T21:22:08.789Z,17.20
2019-04-22T21:24:36.100Z,17.20
2019-04-22T21:27:14.081Z,17.20
2019-04-22T21:29:38.752Z,17.10
2019-04-22T21:32:18.614Z,17.10
2019-04-22T21:34:54.045Z,17.00
2019-04-22T21:37:26.780Z,16.90
2019-04-22T21:39:49.638Z,16.90
2019-04-22T21:42:28.557Z,16.80
2019-04-22T21:45:00.083Z,16.80
2019-04-22T21:47:42.163Z,16.80
2019-04-22T21:50:28.253Z,16.80
2019-04-22T21:52:42.654Z,16.70
2019-04-22T21:55:16.476Z,16.70
2019-04-22T21:58:04.568Z,16.60
2019-04-22T22:00:43.492Z,16.50
2019-04-22T22:03:08.117Z,16.50
2019-04-22T22:05:29.983Z,16.50
2019-04-22T22:08:11.378Z,16.40
2019-04-22T22:10:49.213Z,16.40
2019-04-22T22:13:17.017Z,16.30
2019-04-22T22:15:53.696Z,16.30
2019-04-22T22:18:22.814Z,16.30
2019-04-22T22:21:19.164Z,16.20
2019-04-22T22:23:40.920Z,16.20
2019-04-22T22:25:56.966Z,16.10
2019-04-22T22:28:51.456Z,16.00
2019-04-22T22:31:15.450Z,16.00
2019-04-22T22:33:45.134Z,15.90
2019-04-22T22:36:13.296Z,15.90
2019-04-22T22:38:45.983Z,15.90
2019-04-22T22:41:01.037Z,15.80
2019-04-22T22:43:37.554Z,15.70
2019-04-22T22:46:20.420Z,15.70
2019-04-22T22:48:58.151Z,15.60
2019-04-22T22:51:39.894Z,15.60
2019-04-22T22:54:06.405Z,15.50
2019-04-22T22:56:48.601Z,15.50
2019-04-22T22:59:10.840Z,15.40
2019-04-22T23:01:46.878Z,15.40
2019-04-22T23:04:28.360Z,15.40
2019-04-22T23:06:49.997Z,15.40
2019-04-22T23:09:19.274Z,15.30
2019-04-22T23:12:06.030Z,15.30
2019-04-22T23:14:34.997Z,15.20
2019-04-22T23:16:50.826Z,15.20
2019-04-22T23:19:15.596Z,15.10
2019-04-22T23:21:53.816Z,15.10
2019-04-22T23:25:25.051Z,15.10
2019-04-22T23:27:51.484Z,15.00
2019-04-22T23:30:33.870Z,15.00
2019-04-22T23:33:18.900Z,14.90
2019-04-22T23:36:08.704Z,14.90
2019-04-22T23:38:50.602Z,14.80
2019-04-22T23:41:50.967Z,14.80
2019-04-22T23:44:13.883Z,14.70
2019-04-22T23:46:42.592Z,14.70
2019-04-22T23:49:20.499Z,14.70
2019-04-22T23:52:05.011Z,14.70
2019-04-22T23:54:33.438Z,14.70
2019-04-22T23:56:56.464Z,14.70
2019-04-22T23:59:42.831Z,14.60
